createdAt,value
2022-07-25T00:01:14.827Z,7.2
2022-07-25T00:06:41.164Z,6.3
2022-07-25T00:11:27.919Z,7.7
2022-07-25T00:16:54.365Z,4.1
2022-07-25T00:22:56.963Z,6.4
2022-07-25T00:26:47.209Z,5.3
2022-07-25T00:31:53.593Z,6.4
2022-07-25T00:36:59.997Z,6.4
2022-07-25T00:42:26.436Z,5.3
2022-07-25T00:47:12.775Z,5.7
2022-07-25T00:55:07.513Z,5.0
2022-07-25T00:57:25.577Z,6.3
2022-07-25T01:02:32.032Z,3.9
2022-07-25T01:07:38.386Z,6.0
2022-07-25T01:12:44.762Z,6.1
2022-07-25T01:18:11.234Z,5.9
2022-07-25T01:26:05.967Z,4.6
2022-07-25T01:28:03.986Z,6.5
2022-07-25T01:33:34.419Z,6.0
2022-07-25T01:38:16.768Z,4.6
2022-07-25T01:44:35.321Z,5.5
2022-07-25T01:49:13.801Z,5.4
2022-07-25T01:53:39.534Z,5.2
2022-07-25T01:58:45.960Z,6.6
2022-07-25T02:04:36.544Z,5.5
2022-07-25T02:08:59.887Z,5.1
2022-07-25T02:14:30.297Z,6.3
2022-07-25T02:19:12.639Z,4.8
2022-07-25T02:24:19.010Z,6.1
2022-07-25T02:29:45.446Z,7.1
2022-07-25T02:34:31.886Z,6.3
2022-07-25T02:39:38.299Z,8.1
2022-07-25T02:44:44.750Z,7.2
2022-07-25T02:50:15.493Z,6.4
2022-07-25T02:54:57.868Z,8.1
2022-07-25T03:00:04.221Z,6.4
2022-07-25T03:05:30.639Z,8.0
2022-07-25T03:10:41.025Z,6.7
2022-07-25T03:15:47.579Z,6.0
2022-07-25T03:20:49.964Z,6.2
2022-07-25T03:26:48.449Z,7.5
2022-07-25T03:30:42.720Z,7.3
2022-07-25T03:35:49.090Z,6.9
2022-07-25T03:40:55.481Z,7.3
2022-07-25T03:46:26.034Z,5.5
2022-07-25T03:51:08.266Z,6.7
2022-07-25T03:56:14.650Z,7.2
2022-07-25T04:02:33.293Z,8.3
2022-07-25T04:06:27.437Z,7.1
2022-07-25T04:11:33.813Z,7.2
2022-07-25T04:16:40.232Z,8.5
2022-07-25T04:21:46.585Z,8.1
2022-07-25T04:26:53.023Z,7.6
2022-07-25T04:31:59.437Z,7.4
2022-07-25T04:37:05.766Z,6.3
2022-07-25T04:42:12.155Z,7.2
2022-07-25T04:47:18.536Z,8.8
2022-07-25T04:52:24.919Z,6.5
2022-07-25T04:57:31.312Z,6.1
2022-07-25T05:03:21.758Z,5.8
2022-07-25T05:07:44.050Z,6.8
2022-07-25T05:12:50.416Z,7.4
2022-07-25T05:17:46.799Z,10.6
2022-07-25T05:23:03.258Z,6.0
2022-07-25T05:27:59.736Z,6.1
2022-07-25T05:33:16.142Z,5.2
2022-07-25T05:38:36.560Z,5.4
2022-07-25T05:43:48.968Z,5.0
2022-07-25T05:48:49.413Z,6.5
2022-07-25T05:53:31.689Z,5.1
2022-07-25T05:58:48.066Z,5.2
2022-07-25T06:04:14.484Z,6.1
2022-07-25T06:09:24.868Z,6.0
2022-07-25T06:14:07.514Z,5.8
2022-07-25T06:19:13.634Z,5.5
2022-07-25T06:24:20.008Z,5.3
2022-07-25T06:29:26.406Z,4.7
2022-07-25T06:34:32.839Z,6.0
2022-07-25T06:39:29.153Z,5.1
2022-07-25T06:44:45.731Z,5.8
2022-07-25T06:49:42.073Z,4.7
2022-07-25T06:54:57.469Z,4.7
2022-07-25T06:59:54.828Z,4.1
2022-07-25T07:12:23.042Z,3.6
2022-07-25T07:25:36.921Z,4.3
2022-07-25T07:31:19.334Z,5.0
2022-07-25T07:35:57.282Z,4.0
2022-07-25T07:41:24.612Z,4.2
2022-07-25T07:46:11.025Z,3.9
2022-07-25T07:51:21.350Z,3.9
2022-07-25T07:57:24.420Z,4.3
2022-07-25T08:08:22.285Z,4.4
2022-07-25T08:12:20.537Z,3.5
2022-07-25T08:17:31.069Z,5.5
2022-07-25T08:23:16.719Z,4.6
2022-07-25T08:29:04.911Z,4.2
2022-07-25T08:33:30.573Z,5.8
2022-07-25T08:39:01.031Z,3.4
2022-07-25T08:43:43.355Z,4.0
2022-07-25T08:49:17.913Z,5.7
2022-07-25T09:00:06.259Z,5.4
2022-07-25T09:04:12.594Z,4.4
2022-07-25T09:09:18.999Z,3.6
2022-07-25T09:14:29.398Z,4.7
2022-07-25T09:19:31.798Z,4.8
2022-07-25T09:25:22.265Z,4.0
2022-07-25T09:29:44.554Z,4.0
2022-07-25T09:34:51.003Z,3.7
2022-07-25T09:39:57.922Z,4.5
2022-07-25T09:45:31.553Z,5.3
2022-07-25T09:50:10.653Z,5.6
2022-07-25T09:55:37.082Z,6.1
2022-07-25T10:00:18.975Z,5.3
2022-07-25T10:05:29.819Z,5.0
2022-07-25T10:10:40.267Z,5.1
2022-07-25T10:15:42.627Z,5.5
2022-07-25T10:20:49.039Z,5.6
2022-07-25T10:25:55.479Z,5.3
2022-07-25T10:31:26.149Z,6.2
2022-07-25T10:36:10.001Z,4.4
2022-07-25T10:41:16.379Z,5.6
2022-07-25T10:46:22.849Z,4.8
2022-07-25T10:51:35.105Z,6.6
2022-07-25T10:56:35.598Z,4.7
2022-07-25T11:01:42.102Z,4.9
2022-07-25T11:06:51.504Z,5.2
2022-07-25T11:12:01.899Z,5.6
2022-07-25T11:18:16.408Z,5.2
2022-07-25T11:22:00.645Z,4.0
2022-07-25T11:27:17.053Z,3.7
2022-07-25T11:32:27.436Z,2.6
2022-07-25T11:37:29.817Z,3.2
2022-07-25T11:42:50.234Z,2.7
2022-07-25T11:47:42.588Z,2.3
2022-07-25T11:52:38.936Z,3.3
2022-07-25T11:58:39.425Z,3.2
2022-07-25T12:03:01.902Z,3.1
2022-07-25T12:08:08.088Z,2.0
2022-07-25T12:13:38.509Z,1.5
2022-07-25T12:18:20.843Z,1.8
2022-07-25T12:23:27.216Z,1.8
2022-07-25T12:33:29.961Z,1.6
2022-07-25T12:38:49.392Z,1.8
2022-07-25T12:43:52.792Z,1.4
2022-07-25T12:48:49.217Z,0.7
2022-07-25T12:54:08.928Z,1.4
2022-07-25T12:59:01.936Z,1.5
2022-07-25T13:04:08.317Z,1.3
2022-07-25T13:09:24.717Z,1.7
2022-07-25T13:14:31.112Z,1.4
2022-07-25T13:19:57.506Z,1.8
2022-07-25T13:24:33.925Z,1.5
2022-07-25T13:29:50.329Z,1.4
2022-07-25T13:35:20.439Z,1.7
2022-07-25T13:40:03.209Z,1.8
2022-07-25T13:44:59.579Z,1.7
2022-07-25T13:50:20.169Z,1.7
2022-07-25T13:55:13.097Z,1.3
2022-07-25T14:00:29.494Z,1.1
2022-07-25T14:05:35.879Z,1.2
2022-07-25T14:10:42.257Z,1.5
2022-07-25T14:15:52.648Z,1.4
2022-07-25T14:20:45.029Z,1.6
2022-07-25T14:26:05.434Z,1.7
2022-07-25T14:31:31.982Z,1.1
2022-07-25T14:36:04.212Z,1.6
2022-07-25T14:46:27.681Z,1.7
2022-07-25T14:51:58.067Z,1.6
2022-07-25T14:56:40.411Z,5.1
2022-07-25T15:01:36.877Z,1.9
2022-07-25T15:06:57.162Z,2.0
2022-07-25T15:17:06.558Z,2.1
2022-07-25T15:23:06.024Z,2.5
2022-07-25T15:27:20.350Z,2.2
2022-07-25T15:40:32.203Z,1.5
2022-07-25T15:45:39.580Z,1.5
2022-07-25T15:50:45.974Z,1.9
2022-07-25T15:55:55.945Z,2.4
2022-07-25T16:01:22.470Z,1.8
2022-07-25T16:06:08.691Z,2.5
2022-07-25T16:11:15.087Z,2.2
2022-07-25T16:16:45.636Z,1.7
2022-07-25T16:21:47.941Z,1.4
2022-07-25T16:26:34.278Z,2.6
2022-07-25T16:31:54.767Z,2.0
2022-07-25T16:36:46.197Z,1.8
2022-07-25T16:41:53.558Z,2.6
2022-07-25T16:46:59.990Z,1.9
2022-07-25T16:52:06.331Z,2.1
2022-07-25T16:57:16.716Z,1.9
2022-07-25T17:02:19.479Z,2.5
2022-07-25T17:07:25.793Z,2.0
2022-07-25T17:12:22.255Z,2.9
2022-07-25T17:17:38.650Z,1.7
2022-07-25T17:23:19.132Z,1.7
2022-07-25T17:28:26.531Z,2.0
2022-07-25T17:33:36.935Z,1.8
2022-07-25T17:38:39.297Z,1.9
2022-07-25T17:43:49.701Z,1.8
2022-07-25T17:48:56.215Z,0.9
2022-07-25T17:54:00.044Z,1.6
2022-07-25T17:59:06.429Z,1.0
2022-07-25T18:04:12.885Z,1.0
2022-07-25T18:09:43.337Z,1.5
2022-07-25T18:14:25.696Z,1.5
2022-07-25T18:19:36.097Z,1.0
2022-07-25T18:24:42.446Z,1.2
2022-07-25T18:29:44.902Z,1.4
2022-07-25T18:34:51.409Z,1.5
2022-07-25T18:39:57.829Z,1.3
2022-07-25T18:46:04.454Z,1.3
2022-07-25T18:49:59.601Z,1.2
2022-07-25T18:55:16.969Z,0.7
2022-07-25T19:00:27.372Z,1.3
2022-07-25T19:05:29.777Z,0.9
2022-07-25T19:10:26.098Z,1.2
2022-07-25T19:15:42.559Z,1.2
2022-07-25T19:20:48.905Z,1.5
2022-07-25T19:25:59.311Z,1.7
2022-07-25T19:30:51.725Z,1.3
2022-07-25T19:35:58.043Z,1.2
2022-07-25T19:41:37.484Z,0.9
2022-07-25T19:46:23.961Z,1.4
2022-07-25T19:51:20.943Z,1.2
2022-07-25T19:56:36.365Z,1.4
2022-07-25T20:01:43.886Z,1.3
2022-07-25T20:06:50.181Z,2.1
2022-07-25T20:13:01.459Z,0.8
2022-07-25T20:17:03.056Z,0.9
2022-07-25T20:22:37.403Z,0.7
2022-07-25T20:27:15.741Z,1.1
2022-07-25T20:32:22.118Z,1.0
2022-07-25T20:37:30.072Z,1.0
2022-07-25T20:43:00.503Z,1.3
2022-07-25T20:47:42.841Z,0.7
2022-07-25T20:52:39.220Z,0.9
2022-07-25T20:57:58.632Z,0.8
2022-07-25T21:08:57.404Z,1.2
2022-07-25T21:13:44.758Z,0.7
2022-07-25T21:19:43.288Z,1.1
2022-07-25T21:23:57.547Z,0.8
2022-07-25T21:29:04.355Z,2.4
2022-07-25T21:34:11.980Z,1.3
2022-07-25T21:39:22.380Z,1.2
2022-07-25T21:44:24.805Z,1.1
2022-07-25T21:49:40.805Z,0.9
2022-07-25T21:55:29.731Z,1.0
2022-07-25T21:59:44.004Z,1.0
2022-07-25T22:04:50.619Z,1.1
2022-07-25T22:09:57.605Z,2.7
2022-07-25T22:20:16.248Z,1.3
2022-07-25T22:26:15.755Z,1.6
2022-07-25T22:31:46.307Z,1.1
2022-07-25T22:35:36.406Z,2.2
2022-07-25T22:40:42.796Z,1.7
2022-07-25T22:45:53.341Z,1.0
2022-07-25T22:50:59.723Z,0.8
2022-07-25T22:56:06.086Z,1.4
2022-07-25T23:01:12.480Z,1.8
2022-07-25T23:06:14.879Z,0.8
2022-07-25T23:11:21.235Z,2.4
2022-07-25T23:16:51.782Z,1.0
2022-07-25T23:24:26.352Z,1.0
2022-07-25T23:26:40.397Z,0.9
2022-07-25T23:31:46.844Z,1.5
2022-07-25T23:38:17.348Z,1.4
2022-07-25T23:47:05.131Z,1.5
2022-07-25T23:52:11.385Z,1.3
2022-07-25T23:57:22.809Z,1.3
